Portada
METAR-TAF:

METAR-TAF

Aeroports :

Port Vila, Éfaté, Vanuatu

latitud: 17-42S, longitud: 168-18E, altitud: 20 m

Observació

L'informe es va fer fa 44 minuts, a les 19:00 UTC
Vent 2 kt del Nord
Temperatura 20°C
Humitat 100%
Pressió 1011 hPa
Visibilitat 10 km o més
Escasses núvols a una alçada de 2000 ft
Núvols disperses a una alçada de 12000 ft
Cel ennuvolat a una alçada de 30000 ft

METAR: NVVV 201900Z 01002KT 9999 FEW020 SCT120 BKN300 20/20 Q1011

Hora: 06:44 (19:44 UTC)

Pronòstic

L'informe es va fer fa 3 hores i 44 minuts, a les 16:00 UTC
Pronòstic vàlid del 20 a les 18 UTC al 21 a les 18 UTC
Vent 4 kt amb direcció variable
Visibilitat 10 km o més
Núvols disperses a una alçada de 2000 ft

TAF: NVVV 201600Z 2018/2118 VRB04KT 9999 SCT020

Observacions i pronòstics meteorològics de més de 4000 aeroports (METAR i TAF).

Les estacions disponibles són els punts grocs i vermells al mapa.

Posi el ratolí al punt desitjat per veure el nom de l'estació.

Feu clic per veure les observacions i els pronòstics meteorològics.

Per canviar el mapa: feu clic els botons verds amb una creu de color negre per apropar; al botó verd amb un guió per allunyar la imatge; o en les fletxes verdes per a mapes adjacents.


METAR-TAF: